sensor_id;sensor_type;location;lat;lon;timestamp;temperature;humidity
32787;DHT22;19139;49.372;8.580;2022-09-09T00:01:04;24.30;92.70
32787;DHT22;19139;49.372;8.580;2022-09-09T00:03:57;24.20;92.70
32787;DHT22;19139;49.372;8.580;2022-09-09T00:06:55;24.20;92.70
32787;DHT22;19139;49.372;8.580;2022-09-09T00:09:27;24.20;92.70
32787;DHT22;19139;49.372;8.580;2022-09-09T00:12:00;24.20;92.70
32787;DHT22;19139;49.372;8.580;2022-09-09T00:20:21;24.20;92.70
32787;DHT22;19139;49.372;8.580;2022-09-09T00:28:26;24.20;92.70
32787;DHT22;19139;49.372;8.580;2022-09-09T00:30:53;24.20;92.60
32787;DHT22;19139;49.372;8.580;2022-09-09T00:33:24;24.20;92.70
32787;DHT22;19139;49.372;8.580;2022-09-09T00:35:54;24.20;92.60
32787;DHT22;19139;49.372;8.580;2022-09-09T00:38:32;24.20;92.70
32787;DHT22;19139;49.372;8.580;2022-09-09T00:41:11;24.20;92.60
32787;DHT22;19139;49.372;8.580;2022-09-09T00:43:56;24.20;92.60
32787;DHT22;19139;49.372;8.580;2022-09-09T00:46:48;24.20;92.60
32787;DHT22;19139;49.372;8.580;2022-09-09T00:52:30;24.20;92.60
32787;DHT22;19139;49.372;8.580;2022-09-09T00:57:33;24.20;92.70
32787;DHT22;19139;49.372;8.580;2022-09-09T01:05:27;24.20;92.70
32787;DHT22;19139;49.372;8.580;2022-09-09T01:08:05;24.20;92.70
32787;DHT22;19139;49.372;8.580;2022-09-09T01:10:52;24.20;92.60
32787;DHT22;19139;49.372;8.580;2022-09-09T01:13:29;24.20;92.60
32787;DHT22;19139;49.372;8.580;2022-09-09T01:16:04;24.20;92.60
32787;DHT22;19139;49.372;8.580;2022-09-09T01:18:43;24.20;92.60
32787;DHT22;19139;49.372;8.580;2022-09-09T01:21:33;24.20;92.70
32787;DHT22;19139;49.372;8.580;2022-09-09T01:27:10;24.20;92.60
32787;DHT22;19139;49.372;8.580;2022-09-09T01:29:38;24.20;92.60
32787;DHT22;19139;49.372;8.580;2022-09-09T01:35:21;24.20;92.60
32787;DHT22;19139;49.372;8.580;2022-09-09T01:37:51;24.20;92.60
32787;DHT22;19139;49.372;8.580;2022-09-09T01:40:18;24.20;92.60
32787;DHT22;19139;49.372;8.580;2022-09-09T01:42:49;24.20;92.60
32787;DHT22;19139;49.372;8.580;2022-09-09T01:45:22;24.20;92.60
32787;DHT22;19139;49.372;8.580;2022-09-09T01:47:51;24.20;92.60
32787;DHT22;19139;49.372;8.580;2022-09-09T01:50:18;24.20;92.60
32787;DHT22;19139;49.372;8.580;2022-09-09T01:52:55;24.20;92.60
32787;DHT22;19139;49.372;8.580;2022-09-09T01:55:36;24.20;92.60
32787;DHT22;19139;49.372;8.580;2022-09-09T01:58:34;24.20;92.60
32787;DHT22;19139;49.372;8.580;2022-09-09T02:07:38;24.20;92.50
32787;DHT22;19139;49.372;8.580;2022-09-09T02:10:12;24.20;92.60
32787;DHT22;19139;49.372;8.580;2022-09-09T02:12:53;24.20;92.60
32787;DHT22;19139;49.372;8.580;2022-09-09T02:15:35;24.20;92.60
32787;DHT22;19139;49.372;8.580;2022-09-09T02:18:11;24.20;92.60
32787;DHT22;19139;49.372;8.580;2022-09-09T02:20:39;24.20;92.60
32787;DHT22;19139;49.372;8.580;2022-09-09T02:23:07;24.20;92.60
32787;DHT22;19139;49.372;8.580;2022-09-09T02:25:41;24.20;92.60
32787;DHT22;19139;49.372;8.580;2022-09-09T02:28:09;24.20;92.60
32787;DHT22;19139;49.372;8.580;2022-09-09T02:30:38;24.20;92.60
32787;DHT22;19139;49.372;8.580;2022-09-09T02:33:12;24.20;92.60
32787;DHT22;19139;49.372;8.580;2022-09-09T02:35:40;24.20;92.60
32787;DHT22;19139;49.372;8.580;2022-09-09T02:38:12;24.20;92.60
32787;DHT22;19139;49.372;8.580;2022-09-09T02:40:39;24.20;92.60
32787;DHT22;19139;49.372;8.580;2022-09-09T02:43:10;24.20;92.60
32787;DHT22;19139;49.372;8.580;2022-09-09T02:48:59;24.20;92.60
32787;DHT22;19139;49.372;8.580;2022-09-09T02:51:53;24.20;92.50
32787;DHT22;19139;49.372;8.580;2022-09-09T02:54:34;24.20;92.50
32787;DHT22;19139;49.372;8.580;2022-09-09T02:57:21;24.20;92.50
32787;DHT22;19139;49.372;8.580;2022-09-09T02:59:49;24.20;92.50
32787;DHT22;19139;49.372;8.580;2022-09-09T03:02:21;24.20;92.50
32787;DHT22;19139;49.372;8.580;2022-09-09T03:04:47;24.20;92.50
32787;DHT22;19139;49.372;8.580;2022-09-09T03:07:21;24.20;92.50
32787;DHT22;19139;49.372;8.580;2022-09-09T03:09:48;24.20;92.50
32787;DHT22;19139;49.372;8.580;2022-09-09T03:12:20;24.20;92.50
32787;DHT22;19139;49.372;8.580;2022-09-09T03:14:51;24.20;92.50
32787;DHT22;19139;49.372;8.580;2022-09-09T03:17:18;24.20;92.50
32787;DHT22;19139;49.372;8.580;2022-09-09T03:19:49;24.20;92.50
32787;DHT22;19139;49.372;8.580;2022-09-09T03:22:18;24.20;92.50
32787;DHT22;19139;49.372;8.580;2022-09-09T03:24:51;24.20;92.50
32787;DHT22;19139;49.372;8.580;2022-09-09T03:27:18;24.20;92.70
32787;DHT22;19139;49.372;8.580;2022-09-09T03:29:50;24.20;92.50
32787;DHT22;19139;49.372;8.580;2022-09-09T03:32:18;24.20;92.50
32787;DHT22;19139;49.372;8.580;2022-09-09T03:34:50;24.20;92.50
32787;DHT22;19139;49.372;8.580;2022-09-09T03:37:16;24.20;92.50
32787;DHT22;19139;49.372;8.580;2022-09-09T03:39:49;24.20;92.50
32787;DHT22;19139;49.372;8.580;2022-09-09T03:42:20;24.20;92.50
32787;DHT22;19139;49.372;8.580;2022-09-09T03:44:47;24.20;92.50
32787;DHT22;19139;49.372;8.580;2022-09-09T03:47:21;24.20;92.50
32787;DHT22;19139;49.372;8.580;2022-09-09T03:49:48;24.20;92.50
32787;DHT22;19139;49.372;8.580;2022-09-09T03:52:19;24.20;92.50
32787;DHT22;19139;49.372;8.580;2022-09-09T03:54:49;24.20;92.50
32787;DHT22;19139;49.372;8.580;2022-09-09T03:57:21;24.20;92.40
32787;DHT22;19139;49.372;8.580;2022-09-09T03:59:48;24.20;92.50
32787;DHT22;19139;49.372;8.580;2022-09-09T04:02:19;24.20;92.50
32787;DHT22;19139;49.372;8.580;2022-09-09T04:04:50;24.20;92.50
32787;DHT22;19139;49.372;8.580;2022-09-09T04:07:17;24.20;92.50
32787;DHT22;19139;49.372;8.580;2022-09-09T04:09:49;24.20;92.50
32787;DHT22;19139;49.372;8.580;2022-09-09T04:12:20;24.20;92.40
32787;DHT22;19139;49.372;8.580;2022-09-09T04:14:48;24.20;92.40
32787;DHT22;19139;49.372;8.580;2022-09-09T04:17:20;24.20;92.40
32787;DHT22;19139;49.372;8.580;2022-09-09T04:19:51;24.20;92.40
32787;DHT22;19139;49.372;8.580;2022-09-09T04:22:18;24.20;92.40
32787;DHT22;19139;49.372;8.580;2022-09-09T04:24:49;24.20;92.40
32787;DHT22;19139;49.372;8.580;2022-09-09T04:27:21;24.20;92.40
32787;DHT22;19139;49.372;8.580;2022-09-09T04:29:47;24.20;92.40
32787;DHT22;19139;49.372;8.580;2022-09-09T04:32:19;24.20;92.40
32787;DHT22;19139;49.372;8.580;2022-09-09T04:34:50;24.20;92.40
32787;DHT22;19139;49.372;8.580;2022-09-09T04:37:21;24.20;92.40
32787;DHT22;19139;49.372;8.580;2022-09-09T04:39:48;24.20;92.40
32787;DHT22;19139;49.372;8.580;2022-09-09T04:42:19;24.20;92.40
32787;DHT22;19139;49.372;8.580;2022-09-09T04:44:51;24.20;92.40
32787;DHT22;19139;49.372;8.580;2022-09-09T04:47:17;24.20;92.30
32787;DHT22;19139;49.372;8.580;2022-09-09T04:49:49;24.20;92.40
32787;DHT22;19139;49.372;8.580;2022-09-09T04:52:21;24.20;92.30
32787;DHT22;19139;49.372;8.580;2022-09-09T04:54:47;24.20;92.30
32787;DHT22;19139;49.372;8.580;2022-09-09T04:57:19;24.20;92.30
32787;DHT22;19139;49.372;8.580;2022-09-09T04:59:51;24.20;92.30
32787;DHT22;19139;49.372;8.580;2022-09-09T05:02:17;24.20;92.30
32787;DHT22;19139;49.372;8.580;2022-09-09T05:04:49;24.20;92.30
32787;DHT22;19139;49.372;8.580;2022-09-09T05:07:21;24.20;92.30
32787;DHT22;19139;49.372;8.580;2022-09-09T05:09:47;24.20;92.20
32787;DHT22;19139;49.372;8.580;2022-09-09T05:12:20;24.20;92.20
32787;DHT22;19139;49.372;8.580;2022-09-09T05:14:52;24.20;92.20
32787;DHT22;19139;49.372;8.580;2022-09-09T05:17:19;24.20;92.30
32787;DHT22;19139;49.372;8.580;2022-09-09T05:19:50;24.20;92.30
32787;DHT22;19139;49.372;8.580;2022-09-09T05:22:20;24.20;92.30
32787;DHT22;19139;49.372;8.580;2022-09-09T05:24:51;24.20;92.20
32787;DHT22;19139;49.372;8.580;2022-09-09T05:27:18;24.20;92.20
32787;DHT22;19139;49.372;8.580;2022-09-09T05:29:50;24.20;92.20
32787;DHT22;19139;49.372;8.580;2022-09-09T05:32:17;24.20;92.10
32787;DHT22;19139;49.372;8.580;2022-09-09T05:34:48;24.20;92.10
32787;DHT22;19139;49.372;8.580;2022-09-09T05:37:20;23.40;92.70
32787;DHT22;19139;49.372;8.580;2022-09-09T05:39:51;22.90;93.60
32787;DHT22;19139;49.372;8.580;2022-09-09T05:42:19;22.40;94.10
32787;DHT22;19139;49.372;8.580;2022-09-09T05:44:51;22.30;94.50
32787;DHT22;19139;49.372;8.580;2022-09-09T05:47:25;22.10;94.70
32787;DHT22;19139;49.372;8.580;2022-09-09T05:49:58;22.10;94.80
32787;DHT22;19139;49.372;8.580;2022-09-09T05:52:30;22.00;95.10
32787;DHT22;19139;49.372;8.580;2022-09-09T05:55:01;22.00;95.20
32787;DHT22;19139;49.372;8.580;2022-09-09T05:57:35;22.30;95.00
32787;DHT22;19139;49.372;8.580;2022-09-09T06:00:07;22.20;95.10
32787;DHT22;19139;49.372;8.580;2022-09-09T06:02:39;22.10;95.30
32787;DHT22;19139;49.372;8.580;2022-09-09T06:05:07;21.90;95.40
32787;DHT22;19139;49.372;8.580;2022-09-09T06:07:34;21.90;95.60
32787;DHT22;19139;49.372;8.580;2022-09-09T06:10:07;21.80;95.70
32787;DHT22;19139;49.372;8.580;2022-09-09T06:12:39;21.70;95.80
32787;DHT22;19139;49.372;8.580;2022-09-09T06:15:10;21.60;95.90
32787;DHT22;19139;49.372;8.580;2022-09-09T06:17:37;21.50;96.10
32787;DHT22;19139;49.372;8.580;2022-09-09T06:20:10;21.50;96.00
32787;DHT22;19139;49.372;8.580;2022-09-09T06:22:41;21.60;96.10
32787;DHT22;19139;49.372;8.580;2022-09-09T06:25:08;21.60;96.00
32787;DHT22;19139;49.372;8.580;2022-09-09T06:27:40;21.60;96.10
32787;DHT22;19139;49.372;8.580;2022-09-09T06:30:08;21.50;96.50
32787;DHT22;19139;49.372;8.580;2022-09-09T06:32:40;21.40;96.30
32787;DHT22;19139;49.372;8.580;2022-09-09T06:35:08;21.40;96.20
32787;DHT22;19139;49.372;8.580;2022-09-09T06:37:45;21.30;96.30
32787;DHT22;19139;49.372;8.580;2022-09-09T06:40:16;21.30;96.30
32787;DHT22;19139;49.372;8.580;2022-09-09T06:42:48;21.30;96.40
32787;DHT22;19139;49.372;8.580;2022-09-09T06:45:20;21.40;96.30
32787;DHT22;19139;49.372;8.580;2022-09-09T06:47:54;21.30;96.40
32787;DHT22;19139;49.372;8.580;2022-09-09T06:50:26;21.30;96.50
32787;DHT22;19139;49.372;8.580;2022-09-09T06:52:57;21.30;96.50
32787;DHT22;19139;49.372;8.580;2022-09-09T06:55:29;21.30;96.60
32787;DHT22;19139;49.372;8.580;2022-09-09T06:58:00;21.20;96.80
32787;DHT22;19139;49.372;8.580;2022-09-09T07:00:28;21.30;96.70
32787;DHT22;19139;49.372;8.580;2022-09-09T07:02:56;21.30;96.70
32787;DHT22;19139;49.372;8.580;2022-09-09T07:05:28;21.30;96.70
32787;DHT22;19139;49.372;8.580;2022-09-09T07:07:59;21.30;96.90
32787;DHT22;19139;49.372;8.580;2022-09-09T07:10:31;21.40;96.80
32787;DHT22;19139;49.372;8.580;2022-09-09T07:12:57;21.50;96.70
32787;DHT22;19139;49.372;8.580;2022-09-09T07:15:29;21.50;96.70
32787;DHT22;19139;49.372;8.580;2022-09-09T07:18:01;21.50;96.60
32787;DHT22;19139;49.372;8.580;2022-09-09T07:20:33;21.60;96.60
32787;DHT22;19139;49.372;8.580;2022-09-09T07:23:05;21.70;96.50
32787;DHT22;19139;49.372;8.580;2022-09-09T07:25:36;21.80;96.40
32787;DHT22;19139;49.372;8.580;2022-09-09T07:28:07;21.80;96.20
32787;DHT22;19139;49.372;8.580;2022-09-09T07:30:40;21.90;96.20
32787;DHT22;19139;49.372;8.580;2022-09-09T07:33:11;21.90;96.20
32787;DHT22;19139;49.372;8.580;2022-09-09T07:35:43;21.90;96.10
32787;DHT22;19139;49.372;8.580;2022-09-09T07:38:15;21.90;96.10
32787;DHT22;19139;49.372;8.580;2022-09-09T07:40:46;22.00;96.00
32787;DHT22;19139;49.372;8.580;2022-09-09T07:43:18;22.00;95.90
32787;DHT22;19139;49.372;8.580;2022-09-09T07:45:57;22.00;95.90
32787;DHT22;19139;49.372;8.580;2022-09-09T07:48:29;22.00;95.80
32787;DHT22;19139;49.372;8.580;2022-09-09T07:51:09;22.10;95.70
32787;DHT22;19139;49.372;8.580;2022-09-09T07:53:38;22.10;95.60
32787;DHT22;19139;49.372;8.580;2022-09-09T07:56:15;22.20;95.50
32787;DHT22;19139;49.372;8.580;2022-09-09T07:58:48;22.20;95.40
32787;DHT22;19139;49.372;8.580;2022-09-09T08:01:28;22.30;95.30
32787;DHT22;19139;49.372;8.580;2022-09-09T08:04:02;22.30;95.30
32787;DHT22;19139;49.372;8.580;2022-09-09T08:06:39;22.30;95.10
32787;DHT22;19139;49.372;8.580;2022-09-09T08:09:10;22.30;95.10
32787;DHT22;19139;49.372;8.580;2022-09-09T08:11:38;22.30;95.00
32787;DHT22;19139;49.372;8.580;2022-09-09T08:14:11;22.40;95.00
32787;DHT22;19139;49.372;8.580;2022-09-09T08:16:40;22.40;95.00
32787;DHT22;19139;49.372;8.580;2022-09-09T08:19:07;22.40;95.00
32787;DHT22;19139;49.372;8.580;2022-09-09T08:21:40;22.40;95.00
32787;DHT22;19139;49.372;8.580;2022-09-09T08:24:08;22.40;95.00
32787;DHT22;19139;49.372;8.580;2022-09-09T08:26:44;22.50;94.90
32787;DHT22;19139;49.372;8.580;2022-09-09T08:29:17;22.50;94.90
32787;DHT22;19139;49.372;8.580;2022-09-09T08:31:51;22.50;94.70
32787;DHT22;19139;49.372;8.580;2022-09-09T08:34:25;22.50;94.60
32787;DHT22;19139;49.372;8.580;2022-09-09T08:36:58;22.50;94.60
32787;DHT22;19139;49.372;8.580;2022-09-09T08:39:29;22.50;94.60
32787;DHT22;19139;49.372;8.580;2022-09-09T08:45:21;22.50;94.70
32787;DHT22;19139;49.372;8.580;2022-09-09T08:48:26;22.50;94.70
32787;DHT22;19139;49.372;8.580;2022-09-09T08:51:03;22.50;94.70
32787;DHT22;19139;49.372;8.580;2022-09-09T08:53:42;22.50;94.70
32787;DHT22;19139;49.372;8.580;2022-09-09T08:56:21;22.50;94.70
32787;DHT22;19139;49.372;8.580;2022-09-09T08:58:52;22.50;94.70
32787;DHT22;19139;49.372;8.580;2022-09-09T09:01:44;22.50;94.70
32787;DHT22;19139;49.372;8.580;2022-09-09T09:13:17;22.70;94.50
32787;DHT22;19139;49.372;8.580;2022-09-09T09:15:48;22.70;94.50
32787;DHT22;19139;49.372;8.580;2022-09-09T09:18:17;22.70;94.40
32787;DHT22;19139;49.372;8.580;2022-09-09T09:26:22;22.80;94.20
32787;DHT22;19139;49.372;8.580;2022-09-09T09:28:50;22.80;94.20
32787;DHT22;19139;49.372;8.580;2022-09-09T09:31:20;22.80;94.10
32787;DHT22;19139;49.372;8.580;2022-09-09T09:33:49;22.90;94.10
32787;DHT22;19139;49.372;8.580;2022-09-09T09:36:16;22.90;94.00
32787;DHT22;19139;49.372;8.580;2022-09-09T09:38:57;22.90;93.90
32787;DHT22;19139;49.372;8.580;2022-09-09T09:41:46;23.00;93.90
32787;DHT22;19139;49.372;8.580;2022-09-09T09:44:27;22.90;93.80
32787;DHT22;19139;49.372;8.580;2022-09-09T09:49:35;22.90;93.80
32787;DHT22;19139;49.372;8.580;2022-09-09T09:52:03;22.90;93.80
32787;DHT22;19139;49.372;8.580;2022-09-09T09:54:38;23.00;93.80
32787;DHT22;19139;49.372;8.580;2022-09-09T09:57:12;23.00;93.70
32787;DHT22;19139;49.372;8.580;2022-09-09T09:59:45;23.00;93.70
32787;DHT22;19139;49.372;8.580;2022-09-09T10:02:21;23.00;93.70
32787;DHT22;19139;49.372;8.580;2022-09-09T10:05:17;23.00;93.70
32787;DHT22;19139;49.372;8.580;2022-09-09T10:08:02;23.00;93.70
32787;DHT22;19139;49.372;8.580;2022-09-09T10:13:32;23.00;93.70
32787;DHT22;19139;49.372;8.580;2022-09-09T10:16:13;23.00;93.80
32787;DHT22;19139;49.372;8.580;2022-09-09T10:22:15;23.00;93.70
32787;DHT22;19139;49.372;8.580;2022-09-09T10:27:38;23.00;93.70
32787;DHT22;19139;49.372;8.580;2022-09-09T10:30:15;23.00;93.60
32787;DHT22;19139;49.372;8.580;2022-09-09T10:33:16;23.00;93.60
32787;DHT22;19139;49.372;8.580;2022-09-09T10:36:12;23.00;93.60
32787;DHT22;19139;49.372;8.580;2022-09-09T10:38:45;23.00;93.60
32787;DHT22;19139;49.372;8.580;2022-09-09T10:41:46;23.00;93.60
32787;DHT22;19139;49.372;8.580;2022-09-09T10:46:48;23.00;93.60
32787;DHT22;19139;49.372;8.580;2022-09-09T10:52:24;23.00;93.50
32787;DHT22;19139;49.372;8.580;2022-09-09T10:55:13;23.00;93.50
32787;DHT22;19139;49.372;8.580;2022-09-09T10:57:46;23.00;93.50
32787;DHT22;19139;49.372;8.580;2022-09-09T11:00:22;23.00;93.50
32787;DHT22;19139;49.372;8.580;2022-09-09T11:03:00;23.00;93.50
32787;DHT22;19139;49.372;8.580;2022-09-09T11:05:44;23.00;93.40
32787;DHT22;19139;49.372;8.580;2022-09-09T11:08:20;23.10;93.50
32787;DHT22;19139;49.372;8.580;2022-09-09T11:14:20;23.00;93.40
32787;DHT22;19139;49.372;8.580;2022-09-09T11:17:00;23.00;93.40
32787;DHT22;19139;49.372;8.580;2022-09-09T11:19:40;23.00;93.40
32787;DHT22;19139;49.372;8.580;2022-09-09T11:22:32;23.00;93.40
32787;DHT22;19139;49.372;8.580;2022-09-09T11:25:22;23.00;93.40
32787;DHT22;19139;49.372;8.580;2022-09-09T11:28:25;23.10;93.40
32787;DHT22;19139;49.372;8.580;2022-09-09T11:31:03;23.10;93.40
32787;DHT22;19139;49.372;8.580;2022-09-09T11:42:19;23.00;93.40
32787;DHT22;19139;49.372;8.580;2022-09-09T11:44:46;23.00;93.40
32787;DHT22;19139;49.372;8.580;2022-09-09T11:47:30;23.10;93.40
32787;DHT22;19139;49.372;8.580;2022-09-09T11:52:47;23.00;93.40
32787;DHT22;19139;49.372;8.580;2022-09-09T11:55:24;23.00;93.30
32787;DHT22;19139;49.372;8.580;2022-09-09T12:05:57;23.10;93.40
32787;DHT22;19139;49.372;8.580;2022-09-09T12:08:28;23.10;93.70
32787;DHT22;19139;49.372;8.580;2022-09-09T12:10:57;23.10;93.30
32787;DHT22;19139;49.372;8.580;2022-09-09T12:13:27;23.10;93.30
32787;DHT22;19139;49.372;8.580;2022-09-09T12:15:56;23.10;93.20
32787;DHT22;19139;49.372;8.580;2022-09-09T12:18:40;23.10;93.30
32787;DHT22;19139;49.372;8.580;2022-09-09T12:24:11;23.10;93.20
32787;DHT22;19139;49.372;8.580;2022-09-09T12:26:47;23.10;93.30
32787;DHT22;19139;49.372;8.580;2022-09-09T12:29:46;23.10;93.30
32787;DHT22;19139;49.372;8.580;2022-09-09T12:32:20;23.10;93.30
32787;DHT22;19139;49.372;8.580;2022-09-09T12:37:46;23.10;93.40
32787;DHT22;19139;49.372;8.580;2022-09-09T12:40:32;23.10;93.40
32787;DHT22;19139;49.372;8.580;2022-09-09T12:43:20;23.10;93.40
32787;DHT22;19139;49.372;8.580;2022-09-09T12:46:01;23.10;93.70
32787;DHT22;19139;49.372;8.580;2022-09-09T12:48:40;23.10;93.40
32787;DHT22;19139;49.372;8.580;2022-09-09T12:51:24;23.10;93.40
32787;DHT22;19139;49.372;8.580;2022-09-09T12:53:58;23.10;93.40
32787;DHT22;19139;49.372;8.580;2022-09-09T12:56:30;23.10;93.70
32787;DHT22;19139;49.372;8.580;2022-09-09T12:58:57;23.10;93.40
32787;DHT22;19139;49.372;8.580;2022-09-09T13:01:27;23.10;93.40
32787;DHT22;19139;49.372;8.580;2022-09-09T13:03:55;23.10;93.40
32787;DHT22;19139;49.372;8.580;2022-09-09T13:06:29;23.10;93.40
32787;DHT22;19139;49.372;8.580;2022-09-09T13:08:57;23.10;93.40
32787;DHT22;19139;49.372;8.580;2022-09-09T13:11:48;23.10;93.40
32787;DHT22;19139;49.372;8.580;2022-09-09T13:14:19;23.20;93.40
32787;DHT22;19139;49.372;8.580;2022-09-09T13:16:57;23.20;93.40
32787;DHT22;19139;49.372;8.580;2022-09-09T13:19:25;23.10;93.40
32787;DHT22;19139;49.372;8.580;2022-09-09T13:21:54;23.20;93.50
32787;DHT22;19139;49.372;8.580;2022-09-09T13:24:34;23.20;93.50
32787;DHT22;19139;49.372;8.580;2022-09-09T13:27:57;23.20;93.40
32787;DHT22;19139;49.372;8.580;2022-09-09T13:30:33;23.20;93.40
32787;DHT22;19139;49.372;8.580;2022-09-09T13:35:47;23.20;93.40
32787;DHT22;19139;49.372;8.580;2022-09-09T13:38:16;23.20;93.50
32787;DHT22;19139;49.372;8.580;2022-09-09T13:40:57;23.20;93.80
32787;DHT22;19139;49.372;8.580;2022-09-09T13:43:26;23.20;93.50
32787;DHT22;19139;49.372;8.580;2022-09-09T13:46:04;23.20;93.50
32787;DHT22;19139;49.372;8.580;2022-09-09T13:48:36;23.20;93.50
32787;DHT22;19139;49.372;8.580;2022-09-09T13:51:04;23.20;93.50
32787;DHT22;19139;49.372;8.580;2022-09-09T13:53:36;23.20;93.50
32787;DHT22;19139;49.372;8.580;2022-09-09T13:56:03;23.20;93.50
32787;DHT22;19139;49.372;8.580;2022-09-09T13:58:34;23.20;93.50
32787;DHT22;19139;49.372;8.580;2022-09-09T14:01:06;23.20;93.50
32787;DHT22;19139;49.372;8.580;2022-09-09T14:03:32;23.20;93.50
32787;DHT22;19139;49.372;8.580;2022-09-09T14:06:00;23.20;93.50
32787;DHT22;19139;49.372;8.580;2022-09-09T14:08:27;23.20;93.50
32787;DHT22;19139;49.372;8.580;2022-09-09T14:11:04;23.20;93.50
32787;DHT22;19139;49.372;8.580;2022-09-09T14:13:35;23.20;93.50
32787;DHT22;19139;49.372;8.580;2022-09-09T14:16:04;23.20;93.50
32787;DHT22;19139;49.372;8.580;2022-09-09T14:18:35;23.30;93.50
32787;DHT22;19139;49.372;8.580;2022-09-09T14:21:04;23.30;93.50
32787;DHT22;19139;49.372;8.580;2022-09-09T14:23:36;23.20;93.40
32787;DHT22;19139;49.372;8.580;2022-09-09T14:26:08;23.30;93.50
32787;DHT22;19139;49.372;8.580;2022-09-09T14:28:36;23.30;93.40
32787;DHT22;19139;49.372;8.580;2022-09-09T14:31:21;23.30;93.50
32787;DHT22;19139;49.372;8.580;2022-09-09T14:33:48;23.30;93.40
32787;DHT22;19139;49.372;8.580;2022-09-09T14:36:14;23.30;93.50
32787;DHT22;19139;49.372;8.580;2022-09-09T14:38:46;23.30;93.50
32787;DHT22;19139;49.372;8.580;2022-09-09T14:41:15;23.30;93.50
32787;DHT22;19139;49.372;8.580;2022-09-09T14:43:46;23.30;93.50
32787;DHT22;19139;49.372;8.580;2022-09-09T14:46:15;23.30;93.50
32787;DHT22;19139;49.372;8.580;2022-09-09T14:48:50;23.30;93.40
32787;DHT22;19139;49.372;8.580;2022-09-09T14:51:24;23.30;93.50
32787;DHT22;19139;49.372;8.580;2022-09-09T14:53:57;23.30;93.50
32787;DHT22;19139;49.372;8.580;2022-09-09T14:56:26;23.30;93.50
32787;DHT22;19139;49.372;8.580;2022-09-09T14:58:54;23.30;93.50
32787;DHT22;19139;49.372;8.580;2022-09-09T15:01:27;23.30;93.50
32787;DHT22;19139;49.372;8.580;2022-09-09T15:03:56;23.30;93.50
32787;DHT22;19139;49.372;8.580;2022-09-09T15:06:25;23.30;93.50
32787;DHT22;19139;49.372;8.580;2022-09-09T15:08:57;23.30;93.50
32787;DHT22;19139;49.372;8.580;2022-09-09T15:11:26;23.30;93.50
32787;DHT22;19139;49.372;8.580;2022-09-09T15:13:54;23.30;93.50
32787;DHT22;19139;49.372;8.580;2022-09-09T15:16:27;23.30;93.40
32787;DHT22;19139;49.372;8.580;2022-09-09T15:18:56;23.30;93.40
32787;DHT22;19139;49.372;8.580;2022-09-09T15:21:25;23.30;93.50
32787;DHT22;19139;49.372;8.580;2022-09-09T15:23:57;23.30;93.50
32787;DHT22;19139;49.372;8.580;2022-09-09T15:26:25;23.30;93.50
32787;DHT22;19139;49.372;8.580;2022-09-09T15:28:57;23.30;93.50
32787;DHT22;19139;49.372;8.580;2022-09-09T15:31:27;23.30;93.50
32787;DHT22;19139;49.372;8.580;2022-09-09T15:34:06;23.30;93.60
32787;DHT22;19139;49.372;8.580;2022-09-09T15:36:40;23.40;93.60
32787;DHT22;19139;49.372;8.580;2022-09-09T15:39:15;23.40;93.50
32787;DHT22;19139;49.372;8.580;2022-09-09T15:41:48;23.40;93.50
32787;DHT22;19139;49.372;8.580;2022-09-09T15:44:15;23.40;93.50
32787;DHT22;19139;49.372;8.580;2022-09-09T15:46:51;23.40;93.50
32787;DHT22;19139;49.372;8.580;2022-09-09T15:49:25;23.40;93.50
32787;DHT22;19139;49.372;8.580;2022-09-09T15:51:59;23.40;93.50
32787;DHT22;19139;49.372;8.580;2022-09-09T15:54:32;23.40;93.50
32787;DHT22;19139;49.372;8.580;2022-09-09T15:57:00;23.40;93.50
32787;DHT22;19139;49.372;8.580;2022-09-09T15:59:32;23.30;93.50
32787;DHT22;19139;49.372;8.580;2022-09-09T16:02:05;23.40;93.50
32787;DHT22;19139;49.372;8.580;2022-09-09T16:04:36;23.40;93.50
32787;DHT22;19139;49.372;8.580;2022-09-09T16:07:04;23.40;93.50
32787;DHT22;19139;49.372;8.580;2022-09-09T16:09:36;23.40;93.50
32787;DHT22;19139;49.372;8.580;2022-09-09T16:12:03;23.40;93.50
32787;DHT22;19139;49.372;8.580;2022-09-09T16:14:40;23.30;93.80
32787;DHT22;19139;49.372;8.580;2022-09-09T16:17:12;23.30;93.90
32787;DHT22;19139;49.372;8.580;2022-09-09T16:19:43;23.20;94.20
32787;DHT22;19139;49.372;8.580;2022-09-09T16:22:16;23.10;94.30
32787;DHT22;19139;49.372;8.580;2022-09-09T16:24:44;23.00;94.70
32787;DHT22;19139;49.372;8.580;2022-09-09T16:27:16;23.00;94.80
32787;DHT22;19139;49.372;8.580;2022-09-09T16:29:47;22.90;94.90
32787;DHT22;19139;49.372;8.580;2022-09-09T16:32:20;22.90;95.00
32787;DHT22;19139;49.372;8.580;2022-09-09T16:34:51;22.90;95.40
32787;DHT22;19139;49.372;8.580;2022-09-09T16:37:23;22.90;95.50
32787;DHT22;19139;49.372;8.580;2022-09-09T16:39:54;22.90;95.80
32787;DHT22;19139;49.372;8.580;2022-09-09T16:42:26;22.90;95.90
32787;DHT22;19139;49.372;8.580;2022-09-09T16:44:57;22.80;96.30
32787;DHT22;19139;49.372;8.580;2022-09-09T16:47:24;22.80;96.40
32787;DHT22;19139;49.372;8.580;2022-09-09T16:49:56;22.80;96.60
32787;DHT22;19139;49.372;8.580;2022-09-09T16:52:23;22.80;97.00
32787;DHT22;19139;49.372;8.580;2022-09-09T16:54:54;22.70;97.20
32787;DHT22;19139;49.372;8.580;2022-09-09T16:57:21;22.80;97.30
32787;DHT22;19139;49.372;8.580;2022-09-09T16:59:52;22.80;97.50
32787;DHT22;19139;49.372;8.580;2022-09-09T17:02:25;22.70;97.70
32787;DHT22;19139;49.372;8.580;2022-09-09T17:04:57;22.70;98.30
32787;DHT22;19139;49.372;8.580;2022-09-09T17:07:23;22.60;98.50
32787;DHT22;19139;49.372;8.580;2022-09-09T17:09:55;22.50;99.40
32787;DHT22;19139;49.372;8.580;2022-09-09T17:12:26;22.40;99.90
32787;DHT22;19139;49.372;8.580;2022-09-09T17:14:53;22.50;99.60
32787;DHT22;19139;49.372;8.580;2022-09-09T17:20:01;22.70;99.10
32787;DHT22;19139;49.372;8.580;2022-09-09T17:22:28;22.70;99.10
32787;DHT22;19139;49.372;8.580;2022-09-09T17:24:55;22.70;99.10
32787;DHT22;19139;49.372;8.580;2022-09-09T17:27:22;22.70;99.00
32787;DHT22;19139;49.372;8.580;2022-09-09T17:29:48;22.70;99.20
32787;DHT22;19139;49.372;8.580;2022-09-09T17:32:15;22.70;99.20
32787;DHT22;19139;49.372;8.580;2022-09-09T17:34:42;22.70;99.40
32787;DHT22;19139;49.372;8.580;2022-09-09T17:37:08;22.70;99.40
32787;DHT22;19139;49.372;8.580;2022-09-09T17:39:35;22.60;99.40
32787;DHT22;19139;49.372;8.580;2022-09-09T17:42:02;22.70;99.40
32787;DHT22;19139;49.372;8.580;2022-09-09T17:44:29;22.60;99.30
32787;DHT22;19139;49.372;8.580;2022-09-09T17:46:58;22.60;99.30
32787;DHT22;19139;49.372;8.580;2022-09-09T17:49:26;22.60;99.20
32787;DHT22;19139;49.372;8.580;2022-09-09T17:52:00;22.60;99.20
32787;DHT22;19139;49.372;8.580;2022-09-09T17:54:26;22.70;98.90